Time;durP1;ratioP1;P1;durP2;ratioP2;P2;SDS_P1;SDS_P2;PMS_P1;PMS_P2;Temp;Humidity;BMP_temperature;BMP_pressure;BME280_temperature;BME280_humidity;BME280_pressure;Samples;Min_cycle;Max_cycle;Signal;HPM_P1;HPM_P2
2022/09/04 00:01:03;;;;;;;;;;;;;;;23.18;76.52;98828.50;5075800;28;20009;-43
2022/09/04 00:03:32;;;;;;;;;;;;;;;23.17;78.50;98825.06;5057301;28;20376;-41
2022/09/04 00:05:59;;;;;;;;;;;;;;;23.55;77.25;98825.28;5057185;28;20027;-41
2022/09/04 00:08:37;;;;;;;;;;;;;;;23.58;77.31;98827.63;5058356;28;19931;-41
2022/09/04 00:11:05;;;;;;;;;;;;;;;24.09;71.60;98826.59;5058551;28;19973;-41
2022/09/04 00:13:31;;;;;;;;;;;;;;;23.91;73.98;98828.25;5076652;28;19967;-40
2022/09/04 00:16:07;;;;;;;;;;;;;;;24.74;68.08;98831.19;5074006;28;20235;-41
2022/09/04 00:18:32;;;;;;;;;;;;;;;24.74;68.70;98825.94;5057009;28;19930;-40
2022/09/04 00:21:21;;;;;;;;;;;;;;;24.85;68.65;98825.75;5075918;28;19916;-41
2022/09/04 00:23:46;;;;;;;;;;;;;;;24.41;69.15;98835.97;5065177;28;19928;-40
2022/09/04 00:26:30;;;;;;;;;;;;;;;24.90;67.70;98838.50;5073157;28;19985;-41
2022/09/04 00:28:57;;;;;;;;;;;;;;;24.32;67.03;98839.44;5076934;28;19928;-41
2022/09/04 00:31:25;;;;;;;;;;;;;;;24.76;66.33;98837.16;5040331;28;19927;-43
2022/09/04 00:33:57;;;;;;;;;;;;;;;24.80;69.41;98841.16;5075312;28;20347;-43
2022/09/04 00:36:23;;;;;;;;;;;;;;;24.92;67.71;98841.81;5074013;28;19924;-43
2022/09/04 00:38:52;;;;;;;;;;;;;;;24.63;71.46;98850.63;5057335;28;20009;-41
2022/09/04 00:41:31;;;;;;;;;;;;;;;24.44;72.60;98856.72;5057284;28;20350;-43
2022/09/04 00:44:06;;;;;;;;;;;;;;;24.52;72.43;98859.53;5056808;28;19926;-43
2022/09/04 00:46:50;;;;;;;;;;;;;;;24.48;72.26;98852.06;5075528;28;20365;-43
2022/09/04 00:49:35;;;;;;;;;;;;;;;24.39;72.82;98853.69;5074001;28;19924;-43
2022/09/04 00:52:00;;;;;;;;;;;;;;;24.20;74.83;98865.91;5075322;28;20383;-43
2022/09/04 00:54:25;;;;;;;;;;;;;;;24.14;75.53;98861.19;5075639;28;20091;-43
2022/09/04 00:57:02;;;;;;;;;;;;;;;24.46;72.81;98857.44;5073412;28;19920;-43
2022/09/04 00:59:36;;;;;;;;;;;;;;;24.18;74.59;98856.50;5073912;28;19920;-43
2022/09/04 01:02:20;;;;;;;;;;;;;;;24.39;72.95;98858.97;5074503;28;19927;-43
2022/09/04 01:04:51;;;;;;;;;;;;;;;24.39;72.73;98853.69;5073976;28;20467;-43
2022/09/04 01:07:34;;;;;;;;;;;;;;;24.47;72.41;98856.47;5056548;28;20177;-41
2022/09/04 01:10:05;;;;;;;;;;;;;;;24.51;71.04;98860.50;5055585;28;20159;-40
2022/09/04 01:12:45;;;;;;;;;;;;;;;24.54;71.51;98859.38;5075355;28;19927;-40
2022/09/04 01:15:15;;;;;;;;;;;;;;;24.40;72.03;98865.88;5056857;28;19955;-41
2022/09/04 01:17:43;;;;;;;;;;;;;;;24.44;71.87;98862.00;5073293;28;19951;-40
2022/09/04 01:20:32;;;;;;;;;;;;;;;24.19;73.54;98863.41;5054020;28;20301;-40
2022/09/04 01:23:16;;;;;;;;;;;;;;;24.29;72.23;98864.25;5063541;28;20015;-41
2022/09/04 01:26:00;;;;;;;;;;;;;;;24.08;73.89;98859.09;5073981;28;19923;-40
2022/09/04 01:28:51;;;;;;;;;;;;;;;24.23;73.05;98863.97;5073481;28;19923;-42
2022/09/04 01:31:25;;;;;;;;;;;;;;;24.25;72.52;98862.03;5042580;28;19938;-40
2022/09/04 01:34:09;;;;;;;;;;;;;;;24.17;73.05;98866.16;5074144;28;19923;-42
2022/09/04 01:36:38;;;;;;;;;;;;;;;23.70;76.95;98870.41;5072024;28;20609;-43
2022/09/04 01:39:03;;;;;;;;;;;;;;;23.64;78.17;98868.31;5073205;28;20030;-43
2022/09/04 01:41:30;;;;;;;;;;;;;;;23.44;80.00;98873.53;5075199;28;19924;-43
2022/09/04 01:43:55;;;;;;;;;;;;;;;23.76;77.45;98873.34;5076041;28;19924;-43
2022/09/04 01:46:20;;;;;;;;;;;;;;;23.53;79.04;98871.88;5075721;28;19920;-43
2022/09/04 01:48:48;;;;;;;;;;;;;;;23.73;77.70;98865.69;5074756;28;20007;-43
2022/09/04 01:51:32;;;;;;;;;;;;;;;23.60;78.27;98870.38;5072705;28;20415;-43
2022/09/04 01:54:00;;;;;;;;;;;;;;;23.60;77.78;98873.00;5072522;28;20516;-43
2022/09/04 01:56:33;;;;;;;;;;;;;;;23.73;77.51;98873.59;5073745;28;20010;-43
2022/09/04 01:59:09;;;;;;;;;;;;;;;23.89;76.11;98869.63;5055553;28;19927;-43
2022/09/04 02:01:37;;;;;;;;;;;;;;;23.58;78.02;98874.94;5054059;28;19965;-43
2022/09/04 02:04:21;;;;;;;;;;;;;;;23.57;78.03;98868.84;5073668;28;19923;-43
2022/09/04 02:06:50;;;;;;;;;;;;;;;23.68;77.39;98869.72;5073128;28;19924;-43
2022/09/04 02:09:15;;;;;;;;;;;;;;;23.63;77.63;98872.75;5073313;28;19924;-41
2022/09/04 02:11:47;;;;;;;;;;;;;;;23.54;77.64;98881.44;5073319;28;20005;-41
2022/09/04 02:14:51;;;;;;;;;;;;;;;23.54;78.11;98884.09;5056256;28;19924;-42
2022/09/04 02:17:22;;;;;;;;;;;;;;;23.79;76.48;98877.53;4990400;28;20087;-43
2022/09/04 02:20:01;;;;;;;;;;;;;;;23.74;76.67;98879.66;4991045;28;19948;-43
2022/09/04 02:22:29;;;;;;;;;;;;;;;23.59;77.74;98887.13;5019846;28;20907;-43
2022/09/04 02:24:58;;;;;;;;;;;;;;;23.72;77.17;98892.97;5055129;28;19931;-43
2022/09/04 02:27:23;;;;;;;;;;;;;;;23.57;75.41;98886.44;5053493;28;19916;-43
2022/09/04 02:29:55;;;;;;;;;;;;;;;23.52;76.94;98891.25;5072906;28;19931;-43
2022/09/04 02:32:20;;;;;;;;;;;;;;;23.80;77.02;98884.44;5070634;28;20416;-43
2022/09/04 02:34:52;;;;;;;;;;;;;;;23.67;77.22;98884.63;5053412;28;19985;-40
2022/09/04 02:37:27;;;;;;;;;;;;;;;23.59;77.79;98887.13;5054916;28;20370;-40
2022/09/04 02:39:57;;;;;;;;;;;;;;;23.50;79.01;98893.19;5072514;28;19920;-40
2022/09/04 02:42:41;;;;;;;;;;;;;;;23.45;79.02;98890.16;5072615;28;20341;-41
2022/09/04 02:45:06;;;;;;;;;;;;;;;23.48;79.02;98888.06;5073309;28;19924;-40
2022/09/04 02:47:32;;;;;;;;;;;;;;;23.48;78.17;98895.13;5072153;28;19916;-40
2022/09/04 02:50:00;;;;;;;;;;;;;;;23.58;78.44;98893.34;5054868;28;19927;-42
2022/09/04 02:52:35;;;;;;;;;;;;;;;23.63;78.39;98898.19;5054770;28;20451;-42
2022/09/04 02:55:07;;;;;;;;;;;;;;;23.55;78.83;98901.50;5071886;28;20453;-42
2022/09/04 02:57:41;;;;;;;;;;;;;;;23.48;79.63;98901.19;5053250;28;19950;-43
2022/09/04 03:00:27;;;;;;;;;;;;;;;22.97;76.86;98902.91;5071538;28;19926;-43
2022/09/04 03:03:07;;;;;;;;;;;;;;;23.05;77.69;98898.81;5072839;28;19924;-43
2022/09/04 03:05:33;;;;;;;;;;;;;;;23.15;78.63;98899.72;5054371;28;19920;-42
2022/09/04 03:08:00;;;;;;;;;;;;;;;23.31;79.74;98905.31;5073151;28;19973;-42
2022/09/04 03:10:27;;;;;;;;;;;;;;;23.29;80.90;98904.59;5072068;28;19916;-43
2022/09/04 03:13:22;;;;;;;;;;;;;;;23.31;81.15;98902.69;5053922;28;19927;-43
2022/09/04 03:15:53;;;;;;;;;;;;;;;23.08;82.87;98911.69;5015782;28;19967;-43
2022/09/04 03:18:19;;;;;;;;;;;;;;;23.19;82.63;98916.84;5053613;28;19977;-43
2022/09/04 03:20:51;;;;;;;;;;;;;;;22.93;84.73;98912.00;5052333;28;19924;-43
2022/09/04 03:23:16;;;;;;;;;;;;;;;21.78;87.01;98928.44;5071007;28;19920;-42
2022/09/04 03:26:00;;;;;;;;;;;;;;;21.76;90.26;98923.34;5071716;28;19931;-43
2022/09/04 03:28:33;;;;;;;;;;;;;;;22.24;86.16;98919.53;5063020;28;19932;-43
2022/09/04 03:30:58;;;;;;;;;;;;;;;21.33;92.95;98938.94;5054775;28;19943;-42
2022/09/04 03:33:30;;;;;;;;;;;;;;;22.26;88.24;98928.94;5043581;28;20450;-43
2022/09/04 03:36:21;;;;;;;;;;;;;;;22.68;88.34;98933.41;5053616;28;20262;-43
2022/09/04 03:39:05;;;;;;;;;;;;;;;22.69;87.74;98929.81;5070066;28;19926;-43
2022/09/04 03:41:38;;;;;;;;;;;;;;;22.53;87.88;98920.59;5070785;28;20007;-43
2022/09/04 03:44:03;;;;;;;;;;;;;;;22.34;88.51;98930.94;5041809;28;20019;-43
2022/09/04 03:46:28;;;;;;;;;;;;;;;22.97;88.08;98929.16;5071801;28;20048;-44
2022/09/04 03:49:04;;;;;;;;;;;;;;;22.91;83.19;98924.44;5069249;28;19920;-43
2022/09/04 03:51:32;;;;;;;;;;;;;;;22.66;86.45;98935.31;5053580;28;19964;-43
2022/09/04 03:54:06;;;;;;;;;;;;;;;22.28;90.65;98937.53;5070964;28;20596;-43
2022/09/04 03:56:34;;;;;;;;;;;;;;;22.54;87.68;98927.50;5070336;28;20416;-43
2022/09/04 03:59:04;;;;;;;;;;;;;;;22.64;89.36;98938.06;5071543;28;19916;-43
2022/09/04 04:01:29;;;;;;;;;;;;;;;22.21;89.14;98935.47;5071459;28;20345;-43
2022/09/04 04:04:07;;;;;;;;;;;;;;;22.26;90.13;98938.59;5070163;28;20026;-43
2022/09/04 04:06:35;;;;;;;;;;;;;;;22.30;86.58;98940.00;5070799;28;19931;-43
2022/09/04 04:09:10;;;;;;;;;;;;;;;22.00;92.54;98944.13;5055488;28;19927;-43
2022/09/04 04:11:54;;;;;;;;;;;;;;;22.49;89.06;98936.72;5074783;28;20523;-43
2022/09/04 04:14:37;;;;;;;;;;;;;;;22.15;90.69;98947.31;5057019;28;19923;-43
2022/09/04 04:17:22;;;;;;;;;;;;;;;22.05;93.07;98949.81;5074399;28;19920;-43
2022/09/04 04:20:08;;;;;;;;;;;;;;;21.49;93.50;98949.94;5057423;28;20671;-43
2022/09/04 04:22:50;;;;;;;;;;;;;;;22.03;93.32;98943.03;5075681;28;19920;-43
2022/09/04 04:25:25;;;;;;;;;;;;;;;22.16;91.31;98938.47;5058468;28;19924;-43
2022/09/04 04:27:59;;;;;;;;;;;;;;;21.59;95.41;98950.03;5073522;28;19966;-43
2022/09/04 04:30:25;;;;;;;;;;;;;;;22.25;93.53;98944.81;5074614;28;20772;-43
2022/09/04 04:32:53;;;;;;;;;;;;;;;22.15;89.75;98942.06;5057300;28;19920;-43
2022/09/04 04:35:37;;;;;;;;;;;;;;;22.43;92.51;98956.41;5075644;28;19932;-43
2022/09/04 04:38:22;;;;;;;;;;;;;;;21.94;95.70;98957.75;5057600;28;20036;-43
2022/09/04 04:41:07;;;;;;;;;;;;;;;21.84;93.80;98964.66;5073452;28;20609;-43
2022/09/04 04:43:51;;;;;;;;;;;;;;;22.54;93.54;98960.78;5057570;28;19951;-43
2022/09/04 04:46:19;;;;;;;;;;;;;;;22.91;88.78;98961.19;5078116;28;19915;-43
2022/09/04 04:49:03;;;;;;;;;;;;;;;22.27;92.94;98966.50;5077959;28;19927;-43
2022/09/04 04:51:39;;;;;;;;;;;;;;;21.57;93.59;98978.97;5076606;28;19990;-43
2022/09/04 04:54:07;;;;;;;;;;;;;;;21.66;94.82;98983.50;5076966;28;19934;-43
2022/09/04 04:56:39;;;;;;;;;;;;;;;21.44;98.06;98984.34;5077092;28;19922;-43
2022/09/04 04:59:19;;;;;;;;;;;;;;;21.85;96.85;98987.28;5059349;28;20349;-43
2022/09/04 05:01:54;;;;;;;;;;;;;;;21.47;99.18;98991.13;5074198;28;19965;-43
2022/09/04 05:04:39;;;;;;;;;;;;;;;21.49;96.79;98984.81;5074776;28;19920;-42
2022/09/04 05:07:16;;;;;;;;;;;;;;;21.51;98.92;98993.41;5056794;28;19924;-43
2022/09/04 05:09:59;;;;;;;;;;;;;;;21.91;96.07;98992.88;5075497;28;20052;-44
2022/09/04 05:12:24;;;;;;;;;;;;;;;22.03;96.28;98991.09;5076932;28;19945;-43
2022/09/04 05:14:51;;;;;;;;;;;;;;;22.21;96.96;99003.69;5074625;28;19924;-43
2022/09/04 05:17:19;;;;;;;;;;;;;;;22.96;95.63;99001.03;5056729;28;19931;-43
2022/09/04 05:19:47;;;;;;;;;;;;;;;23.13;93.46;99011.97;5073492;28;19946;-43
2022/09/04 05:22:13;;;;;;;;;;;;;;;23.04;92.93;99005.69;5072338;28;19974;-43
2022/09/04 05:24:50;;;;;;;;;;;;;;;22.83;94.15;99017.94;5075872;28;19916;-43
2022/09/04 05:27:18;;;;;;;;;;;;;;;23.27;92.82;99013.44;5056250;28;19920;-43
2022/09/04 05:29:59;;;;;;;;;;;;;;;23.37;89.96;99009.88;5072665;28;20261;-43
2022/09/04 05:32:26;;;;;;;;;;;;;;;23.31;90.69;99015.69;5057857;28;20133;-43
2022/09/04 05:35:10;;;;;;;;;;;;;;;23.41;92.37;99020.16;5058813;28;19971;-43
2022/09/04 05:37:44;;;;;;;;;;;;;;;23.37;91.32;99023.00;5076235;28;20198;-43
2022/09/04 05:40:42;;;;;;;;;;;;;;;23.55;87.74;99023.25;5076687;28;19931;-43
2022/09/04 05:43:22;;;;;;;;;;;;;;;23.45;92.91;99032.91;5042067;28;20972;-43
2022/09/04 05:45:49;;;;;;;;;;;;;;;22.28;95.46;99039.00;5074729;28;19927;-43
2022/09/04 05:48:15;;;;;;;;;;;;;;;22.97;93.24;99038.66;5076490;28;20361;-43
2022/09/04 05:50:59;;;;;;;;;;;;;;;23.58;94.01;99037.94;5074726;28;19922;-43
2022/09/04 05:53:28;;;;;;;;;;;;;;;23.66;90.67;99043.38;5074707;28;19920;-43
2022/09/04 05:56:02;;;;;;;;;;;;;;;23.52;86.55;99035.84;5057645;28;20571;-43
2022/09/04 05:58:46;;;;;;;;;;;;;;;23.34;90.07;99041.69;5076797;28;19924;-43
2022/09/04 06:01:12;;;;;;;;;;;;;;;22.42;95.78;99049.25;5058073;28;20285;-43
2022/09/04 06:03:53;;;;;;;;;;;;;;;23.05;94.42;99048.53;5076387;28;19969;-43
2022/09/04 06:06:26;;;;;;;;;;;;;;;23.02;93.23;99046.19;5059364;28;20457;-43
2022/09/04 06:09:06;;;;;;;;;;;;;;;22.67;93.16;99052.47;5076184;28;19920;-43
2022/09/04 06:11:50;;;;;;;;;;;;;;;22.79;96.07;99051.50;5058725;28;19971;-43
2022/09/04 06:14:34;;;;;;;;;;;;;;;23.01;93.74;99055.84;5075402;28;19927;-43
2022/09/04 06:16:59;;;;;;;;;;;;;;;23.04;99.16;99065.28;5075750;28;19958;-43
2022/09/04 06:19:43;;;;;;;;;;;;;;;23.85;94.23;99055.78;5077066;28;20011;-43
2022/09/04 06:22:18;;;;;;;;;;;;;;;23.15;94.97;99065.22;5075282;28;19920;-43
2022/09/04 06:24:43;;;;;;;;;;;;;;;23.51;92.44;99068.34;5041999;28;20524;-43
2022/09/04 06:27:14;;;;;;;;;;;;;;;23.44;94.71;99065.38;5075767;28;20018;-43
2022/09/04 06:29:58;;;;;;;;;;;;;;;23.65;92.21;99068.00;5055471;28;19932;-43
2022/09/04 06:32:39;;;;;;;;;;;;;;;23.64;94.52;99068.13;5075896;28;20282;-43
2022/09/04 06:35:23;;;;;;;;;;;;;;;23.30;96.46;99082.31;5075488;28;20998;-43
2022/09/04 06:37:54;;;;;;;;;;;;;;;24.12;94.70;99073.63;5057096;28;19926;-43
2022/09/04 06:40:25;;;;;;;;;;;;;;;25.08;87.40;99070.44;5073537;28;20007;-43
2022/09/04 06:42:57;;;;;;;;;;;;;;;24.61;88.04;99069.34;5075605;28;19920;-43
2022/09/04 06:45:25;;;;;;;;;;;;;;;24.15;91.29;99078.63;5075547;28;19926;-43
2022/09/04 06:47:57;;;;;;;;;;;;;;;24.43;94.71;99076.22;5075400;28;19974;-43
2022/09/04 06:50:23;;;;;;;;;;;;;;;24.13;92.72;99080.56;5057311;28;19920;-44
2022/09/04 06:53:06;;;;;;;;;;;;;;;25.54;88.76;99076.78;5075548;28;19919;-44
2022/09/04 06:55:35;;;;;;;;;;;;;;;26.12;86.68;99071.31;5074811;28;19974;-43
2022/09/04 06:58:09;;;;;;;;;;;;;;;25.24;90.93;99082.09;5075845;28;19920;-43
2022/09/04 07:00:46;;;;;;;;;;;;;;;25.56;88.39;99085.38;5055893;28;20294;-43
2022/09/04 07:03:31;;;;;;;;;;;;;;;25.90;91.01;99083.06;5076355;28;19943;-43
2022/09/04 07:05:59;;;;;;;;;;;;;;;25.75;86.85;99082.69;5076296;28;19968;-44
2022/09/04 07:08:43;;;;;;;;;;;;;;;26.08;87.37;99091.88;5076576;28;19920;-44
2022/09/04 07:11:17;;;;;;;;;;;;;;;26.85;85.73;99094.25;5076205;28;19965;-44
2022/09/04 07:14:03;;;;;;;;;;;;;;;26.69;82.14;99090.47;5075547;28;19928;-44
2022/09/04 07:16:29;;;;;;;;;;;;;;;26.77;80.10;99099.44;5074644;28;19991;-44
2022/09/04 07:18:55;;;;;;;;;;;;;;;27.41;84.40;99098.34;5058019;28;20011;-44
2022/09/04 07:21:39;;;;;;;;;;;;;;;26.03;86.49;99094.13;5074620;28;19972;-44
2022/09/04 07:24:22;;;;;;;;;;;;;;;25.88;90.38;99104.31;5074496;28;19920;-44
2022/09/04 07:26:50;;;;;;;;;;;;;;;27.27;84.42;99098.91;5076182;28;20284;-43
2022/09/04 07:29:21;;;;;;;;;;;;;;;27.04;83.79;99104.63;5054001;28;19924;-44
2022/09/04 07:31:47;;;;;;;;;;;;;;;26.72;87.00;99107.81;5058243;28;19920;-44
2022/09/04 07:34:15;;;;;;;;;;;;;;;27.47;84.09;99100.38;5075619;28;19985;-45
2022/09/04 07:37:00;;;;;;;;;;;;;;;27.20;84.04;99108.41;5072624;28;19935;-44
2022/09/04 07:39:37;;;;;;;;;;;;;;;27.91;83.59;99107.44;5075194;28;19978;-44
2022/09/04 07:42:10;;;;;;;;;;;;;;;28.18;78.17;99109.06;5058364;28;19923;-45
2022/09/04 07:44:53;;;;;;;;;;;;;;;28.55;76.20;99113.19;5053953;28;19924;-44
2022/09/04 07:47:18;;;;;;;;;;;;;;;28.50;78.10;99116.31;5057030;28;19924;-44
2022/09/04 07:50:02;;;;;;;;;;;;;;;27.08;78.74;99124.50;5080304;28;20328;-44
2022/09/04 07:52:49;;;;;;;;;;;;;;;28.78;76.18;99127.50;5077507;28;20000;-44
2022/09/04 07:55:32;;;;;;;;;;;;;;;29.07;73.16;99120.91;5078069;28;20301;-44
2022/09/04 07:58:07;;;;;;;;;;;;;;;29.16;74.45;99125.25;5075340;28;20661;-44
2022/09/04 08:01:01;;;;;;;;;;;;;;;28.95;76.00;99130.19;5076614;28;19997;-44
2022/09/04 08:03:31;;;;;;;;;;;;;;;28.95;73.96;99135.47;5002801;28;19970;-44
2022/09/04 08:06:13;;;;;;;;;;;;;;;29.56;75.25;99141.28;5057808;28;19939;-44
2022/09/04 08:08:38;;;;;;;;;;;;;;;29.71;74.24;99137.00;5055263;28;19920;-45
2022/09/04 08:11:07;;;;;;;;;;;;;;;29.33;75.23;99141.16;5073701;28;19927;-44
2022/09/04 08:13:41;;;;;;;;;;;;;;;29.15;76.85;99144.81;5055757;28;20038;-44
2022/09/04 08:16:07;;;;;;;;;;;;;;;29.10;77.75;99144.47;5075326;28;19943;-46
2022/09/04 08:19:05;;;;;;;;;;;;;;;28.51;81.20;99151.59;5077352;28;19920;-45
2022/09/04 08:21:40;;;;;;;;;;;;;;;29.33;79.95;99146.44;5031289;28;19920;-45
2022/09/04 08:24:20;;;;;;;;;;;;;;;30.66;72.77;99143.34;5058099;28;19919;-44
2022/09/04 08:26:49;;;;;;;;;;;;;;;29.13;78.01;99156.59;5057379;28;20547;-45
2022/09/04 08:29:30;;;;;;;;;;;;;;;30.35;75.21;99146.78;5076796;28;20418;-45
2022/09/04 08:32:14;;;;;;;;;;;;;;;31.50;67.61;99146.94;5076647;28;19920;-45
2022/09/04 08:34:39;;;;;;;;;;;;;;;30.21;72.02;99157.09;5075939;28;19924;-44
2022/09/04 08:37:10;;;;;;;;;;;;;;;29.98;77.83;99167.63;5076638;28;19922;-44
2022/09/04 08:39:41;;;;;;;;;;;;;;;31.06;70.46;99155.53;5073272;28;19924;-45
2022/09/04 08:42:25;;;;;;;;;;;;;;;30.99;68.63;99165.25;5075571;28;19920;-45
2022/09/04 08:44:53;;;;;;;;;;;;;;;31.50;64.89;99154.91;5062889;28;20328;-45
2022/09/04 08:47:34;;;;;;;;;;;;;;;32.13;62.65;99162.63;5072902;28;19920;-45
2022/09/04 08:50:11;;;;;;;;;;;;;;;32.35;60.16;99161.69;5076404;28;20003;-45
2022/09/04 08:52:56;;;;;;;;;;;;;;;31.98;61.76;99166.13;5057161;28;19928;-45
2022/09/04 08:55:43;;;;;;;;;;;;;;;30.43;70.82;99171.50;5076177;28;20368;-48
2022/09/04 08:58:22;;;;;;;;;;;;;;;30.42;72.39;99167.19;5076774;28;19916;-45
2022/09/04 09:00:56;;;;;;;;;;;;;;;30.50;70.18;99170.81;5055551;28;19951;-45
2022/09/04 09:03:40;;;;;;;;;;;;;;;31.16;66.88;99166.78;5074627;28;19927;-45
2022/09/04 09:06:23;;;;;;;;;;;;;;;31.71;64.94;99166.69;5074570;28;19942;-45
2022/09/04 09:09:07;;;;;;;;;;;;;;;32.76;57.48;99165.69;5076575;28;20299;-45
2022/09/04 09:11:48;;;;;;;;;;;;;;;32.00;63.41;99164.09;5074036;28;19927;-45
2022/09/04 09:14:14;;;;;;;;;;;;;;;31.63;62.15;99165.75;5077273;28;19924;-45
2022/09/04 09:16:58;;;;;;;;;;;;;;;31.10;62.89;99172.00;5075204;28;20456;-45
2022/09/04 09:19:32;;;;;;;;;;;;;;;30.64;63.64;99175.41;5075308;28;19988;-45
2022/09/04 09:22:09;;;;;;;;;;;;;;;32.62;56.07;99167.38;5075962;28;20065;-46
2022/09/04 09:24:53;;;;;;;;;;;;;;;32.87;55.29;99168.69;5076466;28;19916;-46
2022/09/04 09:27:36;;;;;;;;;;;;;;;33.61;53.45;99167.53;5074437;28;20026;-45
2022/09/04 09:30:06;;;;;;;;;;;;;;;33.43;53.70;99164.50;5073643;28;19951;-46
2022/09/04 09:32:43;;;;;;;;;;;;;;;33.36;52.35;99163.63;5055131;28;19920;-45
2022/09/04 09:35:35;;;;;;;;;;;;;;;33.89;51.67;99159.53;5056010;28;20005;-46
2022/09/04 09:38:19;;;;;;;;;;;;;;;32.18;54.95;99160.22;5056066;28;19959;-47
2022/09/04 09:40:54;;;;;;;;;;;;;;;33.73;51.95;99155.31;5047368;28;19980;-46
2022/09/04 09:43:40;;;;;;;;;;;;;;;33.57;53.19;99171.59;5049699;28;19920;-46
2022/09/04 09:46:11;;;;;;;;;;;;;;;33.68;48.37;99163.06;5057444;28;19977;-48
2022/09/04 09:48:55;;;;;;;;;;;;;;;34.28;47.44;99157.28;5074101;28;19961;-46
2022/09/04 09:51:39;;;;;;;;;;;;;;;33.46;49.62;99169.44;5055615;28;19920;-45
2022/09/04 09:54:30;;;;;;;;;;;;;;;34.30;47.89;99155.22;5076244;28;19958;-46
2022/09/04 09:57:14;;;;;;;;;;;;;;;34.53;47.58;99155.75;5044301;28;20138;-46
2022/09/04 10:00:04;;;;;;;;;;;;;;;34.57;48.07;99156.16;5073752;28;19923;-45
2022/09/04 10:02:32;;;;;;;;;;;;;;;34.84;46.04;99156.28;5054851;28;19926;-46
2022/09/04 10:05:17;;;;;;;;;;;;;;;34.56;45.06;99152.66;5072376;28;19927;-45
2022/09/04 10:07:52;;;;;;;;;;;;;;;32.26;52.91;99165.47;5074588;28;19915;-45
2022/09/04 10:10:20;;;;;;;;;;;;;;;33.33;50.66;99160.31;5073880;28;19927;-46
2022/09/04 10:13:00;;;;;;;;;;;;;;;33.40;47.22;99156.88;5069083;28;19920;-45
2022/09/04 10:15:45;;;;;;;;;;;;;;;34.90;47.10;99156.28;5073434;28;20015;-48
2022/09/04 10:18:24;;;;;;;;;;;;;;;32.55;50.17;99156.63;5070603;28;20505;-45
2022/09/04 10:21:11;;;;;;;;;;;;;;;33.12;47.93;99157.66;5070460;28;19920;-47
2022/09/04 10:23:42;;;;;;;;;;;;;;;33.77;46.79;99161.09;5069781;28;19935;-46
2022/09/04 10:26:07;;;;;;;;;;;;;;;33.53;45.45;99165.00;5073903;28;19920;-45
2022/09/04 10:28:39;;;;;;;;;;;;;;;32.97;48.28;99164.88;5074271;28;19916;-45
2022/09/04 10:31:04;;;;;;;;;;;;;;;35.22;45.33;99156.56;5072036;28;19955;-45
2022/09/04 10:33:48;;;;;;;;;;;;;;;34.60;43.66;99165.63;5072161;28;20016;-46
2022/09/04 10:36:30;;;;;;;;;;;;;;;33.63;46.21;99170.84;5072067;28;20280;-47
2022/09/04 10:42:05;;;;;;;;;;;;;;;35.28;42.73;99163.75;5030808;28;20405;-45
2022/09/04 10:44:36;;;;;;;;;;;;;;;35.79;41.23;99159.66;5065157;28;19920;-46
2022/09/04 10:47:17;;;;;;;;;;;;;;;35.68;40.95;99158.44;5071420;28;20034;-45
2022/09/04 10:50:12;;;;;;;;;;;;;;;36.66;38.53;99154.03;5055291;28;19916;-46
2022/09/04 10:52:52;;;;;;;;;;;;;;;37.09;39.49;99156.06;5053811;28;20084;-45
2022/09/04 10:55:26;;;;;;;;;;;;;;;36.27;39.33;99156.66;5053986;28;19924;-46
2022/09/04 10:58:01;;;;;;;;;;;;;;;37.38;38.80;99157.28;5053964;28;19963;-42
2022/09/04 11:00:30;;;;;;;;;;;;;;;37.38;37.55;99155.41;5071489;28;19924;-41
2022/09/04 11:02:55;;;;;;;;;;;;;;;37.19;37.63;99156.41;5073758;28;20430;-41
2022/09/04 11:05:24;;;;;;;;;;;;;;;35.74;41.78;99154.94;5073509;28;19933;-42
2022/09/04 11:07:52;;;;;;;;;;;;;;;36.19;40.91;99154.22;5073586;28;20182;-41
2022/09/04 11:10:26;;;;;;;;;;;;;;;36.83;39.83;99158.66;5072254;28;19920;-41
2022/09/04 11:12:51;;;;;;;;;;;;;;;34.28;45.03;99154.59;5056285;28;19912;-41
2022/09/04 11:15:22;;;;;;;;;;;;;;;33.02;49.95;99157.13;5073226;28;19931;-41
2022/09/04 11:18:06;;;;;;;;;;;;;;;33.37;50.18;99149.25;5073001;28;20011;-41
2022/09/04 11:20:43;;;;;;;;;;;;;;;33.11;51.04;99150.66;5073214;28;20297;-41
2022/09/04 11:23:27;;;;;;;;;;;;;;;34.81;45.94;99140.59;5077393;28;20360;-42
2022/09/04 11:26:12;;;;;;;;;;;;;;;35.13;43.52;99136.38;5077156;28;19927;-41
2022/09/04 11:28:39;;;;;;;;;;;;;;;36.19;40.30;99143.47;5075665;28;19999;-41
2022/09/04 11:31:07;;;;;;;;;;;;;;;36.25;40.84;99152.56;5077164;28;19920;-41
2022/09/04 11:33:47;;;;;;;;;;;;;;;36.83;40.00;99144.44;5076927;28;19923;-41
2022/09/04 11:36:39;;;;;;;;;;;;;;;35.92;37.84;99132.00;5075646;28;20406;-41
2022/09/04 11:39:07;;;;;;;;;;;;;;;37.37;38.63;99143.03;5072286;28;20001;-41
2022/09/04 11:41:35;;;;;;;;;;;;;;;37.56;36.04;99137.72;5075032;28;20040;-42
2022/09/04 11:44:10;;;;;;;;;;;;;;;38.45;36.83;99135.50;5076263;28;19920;-42
2022/09/04 11:46:49;;;;;;;;;;;;;;;36.93;38.50;99136.75;5057176;28;19960;-42
2022/09/04 11:49:24;;;;;;;;;;;;;;;37.20;38.41;99134.72;5075076;28;20007;-42
2022/09/04 11:52:04;;;;;;;;;;;;;;;36.97;35.33;99137.94;5058095;28;19912;-42
2022/09/04 11:54:42;;;;;;;;;;;;;;;36.34;40.24;99137.88;5075628;28;19924;-41
2022/09/04 11:57:26;;;;;;;;;;;;;;;37.00;39.88;99139.38;5066146;28;20376;-41
2022/09/04 12:00:05;;;;;;;;;;;;;;;36.95;38.16;99123.94;5070260;28;19920;-42
2022/09/04 12:02:36;;;;;;;;;;;;;;;37.30;35.86;99144.94;5071609;28;20308;-41
2022/09/04 12:05:10;;;;;;;;;;;;;;;38.17;35.51;99139.56;5075311;28;19916;-47
2022/09/04 12:07:40;;;;;;;;;;;;;;;37.33;36.62;99144.50;5075068;28;19931;-47
2022/09/04 12:10:09;;;;;;;;;;;;;;;38.68;34.07;99132.09;5040623;28;19916;-46
2022/09/04 12:12:40;;;;;;;;;;;;;;;37.93;34.92;99135.06;5075426;28;20405;-46
2022/09/04 12:15:10;;;;;;;;;;;;;;;36.24;35.61;99143.66;5076050;28;20026;-46
2022/09/04 12:17:50;;;;;;;;;;;;;;;37.50;35.59;99141.25;5056698;28;19926;-47
2022/09/04 12:20:22;;;;;;;;;;;;;;;36.45;37.36;99139.88;5075271;28;20008;-46
2022/09/04 12:23:03;;;;;;;;;;;;;;;36.77;36.83;99150.69;5076180;28;20003;-47
2022/09/04 12:25:37;;;;;;;;;;;;;;;37.94;36.37;99144.78;5076599;28;19916;-49
2022/09/04 12:28:03;;;;;;;;;;;;;;;39.28;34.75;99145.50;5075500;28;20007;-47
2022/09/04 12:30:48;;;;;;;;;;;;;;;38.79;34.42;99146.66;5076109;28;19931;-47
2022/09/04 12:33:18;;;;;;;;;;;;;;;37.37;35.64;99151.09;5075569;28;20026;-47
2022/09/04 12:36:02;;;;;;;;;;;;;;;36.50;37.08;99150.78;5075477;28;19920;-47
2022/09/04 12:38:34;;;;;;;;;;;;;;;35.55;38.80;99153.06;5058078;28;19916;-47
2022/09/04 12:41:19;;;;;;;;;;;;;;;35.31;40.55;99154.53;5056994;28;19935;-46
2022/09/04 12:44:05;;;;;;;;;;;;;;;35.95;39.40;99153.03;5057414;28;19916;-46
2022/09/04 12:46:32;;;;;;;;;;;;;;;38.43;37.07;99149.19;5056977;28;20044;-48
2022/09/04 12:49:12;;;;;;;;;;;;;;;37.82;34.67;99150.91;5074358;28;19920;-47
2022/09/04 12:51:42;;;;;;;;;;;;;;;39.00;34.83;99154.22;5074419;28;20415;-47
2022/09/04 12:54:26;;;;;;;;;;;;;;;38.81;33.65;99155.31;5055954;28;20288;-47
2022/09/04 12:56:52;;;;;;;;;;;;;;;36.57;36.09;99159.63;5074780;28;19916;-48
2022/09/04 12:59:21;;;;;;;;;;;;;;;35.89;38.84;99162.72;5075477;28;19972;-46
2022/09/04 13:01:58;;;;;;;;;;;;;;;37.52;35.95;99163.34;5075710;28;20958;-47
2022/09/04 13:04:29;;;;;;;;;;;;;;;37.02;36.78;99159.59;5075456;28;19926;-48
2022/09/04 13:07:13;;;;;;;;;;;;;;;34.27;39.98;99158.31;5072533;28;19916;-46
2022/09/04 13:09:40;;;;;;;;;;;;;;;37.41;37.56;99165.72;5074123;28;19927;-47
2022/09/04 13:12:11;;;;;;;;;;;;;;;35.17;38.18;99167.91;5074215;28;20344;-47
2022/09/04 13:14:49;;;;;;;;;;;;;;;35.50;39.45;99167.06;5075269;28;20515;-47
2022/09/04 13:17:27;;;;;;;;;;;;;;;35.16;37.84;99170.75;5056160;28;19916;-47
2022/09/04 13:20:11;;;;;;;;;;;;;;;35.88;40.02;99160.25;5044534;28;19926;-47
2022/09/04 13:22:52;;;;;;;;;;;;;;;36.83;38.65;99173.97;5074634;28;20739;-48
2022/09/04 13:25:43;;;;;;;;;;;;;;;36.75;38.46;99174.22;5056592;28;20440;-47
2022/09/04 13:28:14;;;;;;;;;;;;;;;37.54;36.66;99169.34;5042015;28;19947;-46
2022/09/04 13:30:44;;;;;;;;;;;;;;;37.25;37.49;99177.03;5074618;28;19923;-47
2022/09/04 13:33:18;;;;;;;;;;;;;;;37.24;34.51;99172.69;5057618;28;19973;-47